createdAt,value
2018-11-04T00:02:17.387Z,19.67
2018-11-04T00:04:46.498Z,18.90
2018-11-04T00:07:15.643Z,19.50
2018-11-04T00:09:45.155Z,20.90
2018-11-04T00:12:14.297Z,19.97
2018-11-04T00:14:43.502Z,19.43
2018-11-04T00:17:12.817Z,20.73
2018-11-04T00:19:48.676Z,19.33
2018-11-04T00:22:18.351Z,20.27
2018-11-04T00:24:47.500Z,20.43
2018-11-04T00:27:17.935Z,19.43
2018-11-04T00:29:46.987Z,18.97
2018-11-04T00:32:16.099Z,19.20
2018-11-04T00:34:45.484Z,19.67
2018-11-04T00:37:14.696Z,20.00
2018-11-04T00:39:43.835Z,19.07
2018-11-04T00:42:13.134Z,19.20
2018-11-04T00:44:42.907Z,19.23
2018-11-04T00:47:13.289Z,20.33
2018-11-04T00:49:42.517Z,20.07
2018-11-04T00:52:11.701Z,18.63
2018-11-04T00:54:41.434Z,20.53
2018-11-04T00:57:10.623Z,20.57
2018-11-04T00:59:39.768Z,19.80
2018-11-04T01:02:08.876Z,20.20
2018-11-04T01:04:38.072Z,23.43
2018-11-04T01:07:07.247Z,21.97
2018-11-04T01:09:36.391Z,21.47
2018-11-04T01:12:06.008Z,21.93
2018-11-04T01:14:35.232Z,20.50
2018-11-04T01:17:04.803Z,21.20
2018-11-04T01:19:34.090Z,23.00
2018-11-04T01:22:03.634Z,21.73
2018-11-04T01:24:32.871Z,21.80
2018-11-04T01:27:02.057Z,23.70
2018-11-04T01:29:31.272Z,25.27
2018-11-04T01:32:00.941Z,23.70
2018-11-04T01:34:30.012Z,21.97
2018-11-04T01:36:59.244Z,22.50
2018-11-04T01:39:28.375Z,24.00
2018-11-04T01:41:57.558Z,22.50
2018-11-04T01:44:26.664Z,28.47
2018-11-04T01:46:55.828Z,29.47
2018-11-04T01:49:24.974Z,25.43
2018-11-04T01:51:54.080Z,22.63
2018-11-04T01:54:23.252Z,22.87
2018-11-04T01:56:52.529Z,23.33
2018-11-04T01:59:21.673Z,23.90
2018-11-04T02:01:50.899Z,24.20
2018-11-04T02:04:19.964Z,24.60
2018-11-04T02:06:49.090Z,23.63
2018-11-04T02:09:18.155Z,24.13
2018-11-04T02:11:47.235Z,25.23
2018-11-04T02:14:16.947Z,25.07
2018-11-04T02:16:46.419Z,25.17
2018-11-04T02:19:15.644Z,23.50
2018-11-04T02:21:45.956Z,23.17
2018-11-04T02:24:15.585Z,23.00
2018-11-04T02:26:45.231Z,24.47
2018-11-04T02:29:14.279Z,22.67
2018-11-04T02:31:43.407Z,23.67
2018-11-04T02:34:12.556Z,25.03
2018-11-04T02:36:41.630Z,25.40
2018-11-04T02:39:11.239Z,24.70
2018-11-04T02:41:40.331Z,25.30
2018-11-04T02:44:09.420Z,24.97
2018-11-04T02:46:38.504Z,22.50
2018-11-04T02:49:07.564Z,23.43
2018-11-04T02:51:36.673Z,24.77
2018-11-04T02:54:05.755Z,24.43
2018-11-04T02:56:34.795Z,23.70
2018-11-04T02:59:03.945Z,23.10
2018-11-04T03:01:33.149Z,22.80
2018-11-04T03:04:02.296Z,24.77
2018-11-04T03:06:31.378Z,24.40
2018-11-04T03:09:00.455Z,24.07
2018-11-04T03:11:29.535Z,22.30
2018-11-04T03:13:58.692Z,26.00
2018-11-04T03:16:28.467Z,25.50
2018-11-04T03:18:57.549Z,24.57
2018-11-04T03:21:26.664Z,23.40
2018-11-04T03:23:55.756Z,25.80
2018-11-04T03:26:24.810Z,24.67
2018-11-04T03:28:53.926Z,24.03
2018-11-04T03:31:23.177Z,22.73
2018-11-04T03:33:52.253Z,22.63
2018-11-04T03:36:21.292Z,25.00
2018-11-04T03:38:50.895Z,24.27
2018-11-04T03:41:19.985Z,22.80
2018-11-04T03:43:49.427Z,22.47
2018-11-04T03:46:18.542Z,22.77
2018-11-04T03:48:47.600Z,25.10
2018-11-04T03:51:17.646Z,23.77
2018-11-04T03:53:47.032Z,24.37
2018-11-04T03:56:16.115Z,24.97
2018-11-04T03:58:45.850Z,24.60
2018-11-04T04:01:14.968Z,25.20
2018-11-04T04:03:44.037Z,24.87
2018-11-04T04:06:13.681Z,22.00
2018-11-04T04:08:43.374Z,23.10
2018-11-04T04:11:12.497Z,23.17
2018-11-04T04:13:41.613Z,24.70
2018-11-04T04:16:10.702Z,24.17
2018-11-04T04:18:39.780Z,23.10
2018-11-04T04:21:09.682Z,25.20
2018-11-04T04:23:39.866Z,24.00
2018-11-04T04:26:10.192Z,22.90
2018-11-04T04:28:39.476Z,24.20
2018-11-04T04:31:08.592Z,23.87
2018-11-04T04:33:37.811Z,24.27
2018-11-04T04:36:07.579Z,23.77
2018-11-04T04:38:37.033Z,24.13
2018-11-04T04:41:07.009Z,26.37
2018-11-04T04:43:36.249Z,23.50
2018-11-04T04:46:05.683Z,22.00
2018-11-04T04:48:34.767Z,23.00
2018-11-04T04:51:04.560Z,24.07
2018-11-04T04:53:33.597Z,25.70
2018-11-04T04:56:02.766Z,25.17
2018-11-04T04:58:31.864Z,26.20
2018-11-04T05:01:00.952Z,27.07
2018-11-04T05:03:30.314Z,24.40
2018-11-04T05:05:59.452Z,27.20
2018-11-04T05:08:28.553Z,25.30
2018-11-04T05:10:57.623Z,23.73
2018-11-04T05:13:26.765Z,27.27
2018-11-04T05:15:55.881Z,27.93
2018-11-04T05:18:24.952Z,27.40
2018-11-04T05:20:54.055Z,26.90
2018-11-04T05:23:23.160Z,27.13
2018-11-04T05:25:52.240Z,28.43
2018-11-04T05:28:21.351Z,27.83
2018-11-04T05:30:50.461Z,25.97
2018-11-04T05:33:20.202Z,28.30
2018-11-04T05:35:49.290Z,27.23
2018-11-04T05:38:18.403Z,27.57
2018-11-04T05:40:47.420Z,25.57
2018-11-04T05:43:17.330Z,29.80
2018-11-04T05:45:46.570Z,26.00
2018-11-04T05:48:16.012Z,29.07
2018-11-04T05:50:45.245Z,28.13
2018-11-04T05:53:14.339Z,28.57
2018-11-04T05:55:43.423Z,28.70
2018-11-04T05:58:13.252Z,27.30
2018-11-04T06:00:42.355Z,28.50
2018-11-04T06:03:11.543Z,28.53
2018-11-04T06:05:41.242Z,29.40
2018-11-04T06:08:10.351Z,30.47
2018-11-04T06:10:39.510Z,29.70
2018-11-04T06:13:08.611Z,28.20
2018-11-04T06:15:37.692Z,28.07
2018-11-04T06:18:06.777Z,30.30
2018-11-04T06:20:35.929Z,28.20
2018-11-04T06:23:05.033Z,28.50
2018-11-04T06:25:34.091Z,28.47
2018-11-04T06:28:04.559Z,30.03
2018-11-04T06:30:33.649Z,27.17
2018-11-04T06:33:02.743Z,28.43
2018-11-04T06:35:31.815Z,28.87
2018-11-04T06:38:01.223Z,28.60
2018-11-04T06:40:30.321Z,30.10
2018-11-04T06:42:59.422Z,30.20
2018-11-04T06:45:29.228Z,31.67
2018-11-04T06:47:59.429Z,28.40
2018-11-04T06:50:29.906Z,31.43
2018-11-04T06:53:00.034Z,29.80
2018-11-04T06:55:29.132Z,30.53
2018-11-04T06:57:58.811Z,32.67
2018-11-04T07:00:27.874Z,30.57
2018-11-04T07:02:56.953Z,32.20
2018-11-04T07:05:26.098Z,29.80
2018-11-04T07:09:19.653Z,31.70
2018-11-04T07:11:49.646Z,29.60
2018-11-04T07:14:19.314Z,32.57
2018-11-04T07:16:48.417Z,29.70
2018-11-04T07:19:17.767Z,30.93
2018-11-04T07:21:47.025Z,29.23
2018-11-04T07:24:16.103Z,28.30
2018-11-04T07:26:45.217Z,30.20
2018-11-04T07:29:14.278Z,30.27
2018-11-04T07:31:43.751Z,29.27
2018-11-04T07:34:12.902Z,28.00
2018-11-04T07:36:41.980Z,29.17
2018-11-04T07:39:13.039Z,30.57
2018-11-04T07:41:42.236Z,30.03
2018-11-04T07:44:11.460Z,31.07
2018-11-04T07:46:40.668Z,31.27
2018-11-04T07:49:10.259Z,32.07
2018-11-04T07:51:40.136Z,28.23
2018-11-04T07:54:09.152Z,28.20
2018-11-04T07:56:38.855Z,31.87
2018-11-04T07:59:08.214Z,31.67
2018-11-04T08:01:37.422Z,31.30
2018-11-04T08:04:06.785Z,33.20
2018-11-04T08:06:35.847Z,35.67
2018-11-04T08:09:07.416Z,31.53
2018-11-04T08:11:37.656Z,34.77
2018-11-04T08:14:07.093Z,37.33
2018-11-04T08:16:36.470Z,37.67
2018-11-04T08:19:05.715Z,38.97
2018-11-04T08:21:34.821Z,36.77
2018-11-04T08:24:04.677Z,36.77
2018-11-04T08:26:33.820Z,35.90
2018-11-04T08:29:03.058Z,32.90
2018-11-04T08:31:32.198Z,35.00
2018-11-04T08:34:01.273Z,33.90
2018-11-04T08:36:30.404Z,35.07
2018-11-04T08:39:00.355Z,33.80
2018-11-04T08:41:29.438Z,32.87
2018-11-04T08:43:59.271Z,35.57
2018-11-04T08:46:28.884Z,33.97
2018-11-04T08:48:58.098Z,34.67
2018-11-04T08:51:27.192Z,37.17
2018-11-04T08:53:56.282Z,36.43
2018-11-04T08:56:25.459Z,33.43
2018-11-04T08:58:54.572Z,35.10
2018-11-04T09:01:23.858Z,37.07
2018-11-04T09:03:53.551Z,34.10
2018-11-04T09:06:22.870Z,35.87
2018-11-04T09:08:52.134Z,36.33
2018-11-04T09:11:21.252Z,38.10
2018-11-04T09:13:50.352Z,36.50
2018-11-04T09:16:19.551Z,36.30
2018-11-04T09:18:48.672Z,35.97
2018-11-04T09:21:18.520Z,32.80
2018-11-04T09:23:47.757Z,34.23
2018-11-04T09:26:16.759Z,33.40
2018-11-04T09:28:46.332Z,36.17
2018-11-04T09:31:15.809Z,36.47
2018-11-04T09:33:45.868Z,38.60
2018-11-04T09:36:15.841Z,37.17
2018-11-04T09:38:44.835Z,37.83
2018-11-04T09:41:14.092Z,37.87
2018-11-04T09:43:43.246Z,37.87
2018-11-04T09:46:12.611Z,37.10
2018-11-04T09:48:41.982Z,40.27
2018-11-04T09:51:11.950Z,37.93
2018-11-04T09:53:41.051Z,37.00
2018-11-04T09:56:10.770Z,36.80
2018-11-04T09:58:46.648Z,38.00
2018-11-04T10:01:15.844Z,40.27
2018-11-04T10:03:44.990Z,35.13
2018-11-04T10:06:14.204Z,41.00
2018-11-04T10:08:43.335Z,35.97
2018-11-04T10:11:12.758Z,35.57
2018-11-04T10:13:42.034Z,41.40
2018-11-04T10:16:11.408Z,36.37
2018-11-04T10:18:41.274Z,38.07
2018-11-04T10:21:10.705Z,35.03
2018-11-04T10:23:39.659Z,35.17
2018-11-04T10:26:08.776Z,37.43
2018-11-04T10:28:38.009Z,35.67
2018-11-04T10:31:07.166Z,35.10
2018-11-04T10:33:36.316Z,36.00
2018-11-04T10:36:06.552Z,34.10
2018-11-04T10:38:35.674Z,38.43
2018-11-04T10:41:04.856Z,37.00
2018-11-04T10:43:34.802Z,35.53
2018-11-04T10:46:05.099Z,40.13
2018-11-04T10:48:34.261Z,37.37
2018-11-04T10:51:03.456Z,36.07
2018-11-04T10:53:32.713Z,36.30
2018-11-04T10:56:01.913Z,36.53
2018-11-04T10:58:31.150Z,38.37
2018-11-04T11:01:05.684Z,36.13
2018-11-04T11:03:35.122Z,35.47
2018-11-04T11:06:05.053Z,36.60
2018-11-04T11:08:34.984Z,38.90
2018-11-04T11:11:04.921Z,37.53
2018-11-04T11:13:35.169Z,38.00
2018-11-04T11:16:04.648Z,38.50
2018-11-04T11:18:34.546Z,36.77
2018-11-04T11:21:03.706Z,37.20
2018-11-04T11:23:32.821Z,36.50
2018-11-04T11:26:02.130Z,38.57
2018-11-04T11:28:31.841Z,36.63
2018-11-04T11:31:04.994Z,39.40
2018-11-04T11:33:34.207Z,37.93
2018-11-04T11:36:03.438Z,38.37
2018-11-04T11:38:33.769Z,41.13
2018-11-04T11:41:03.867Z,39.00
2018-11-04T11:43:33.034Z,37.93
2018-11-04T11:46:03.486Z,40.50
2018-11-04T11:48:33.124Z,38.43
2018-11-04T11:51:02.389Z,38.47
2018-11-04T11:53:33.903Z,37.43
2018-11-04T11:58:30.633Z,37.83
2018-11-04T12:00:59.806Z,37.90
2018-11-04T12:03:29.735Z,38.43
2018-11-04T12:05:59.584Z,37.60
2018-11-04T12:08:30.060Z,38.00
2018-11-04T12:10:59.859Z,40.07
2018-11-04T12:13:29.942Z,38.40
2018-11-04T12:16:00.222Z,40.07
2018-11-04T12:18:29.773Z,35.90
2018-11-04T12:20:59.085Z,38.40
2018-11-04T12:23:28.993Z,39.20
2018-11-04T12:25:59.019Z,37.47
2018-11-04T12:28:29.305Z,38.10
2018-11-04T12:30:58.769Z,38.50
2018-11-04T12:33:29.160Z,36.97
2018-11-04T12:35:58.652Z,40.40
2018-11-04T12:38:27.950Z,38.60
2018-11-04T12:40:57.704Z,39.50
2018-11-04T12:43:27.041Z,40.80
2018-11-04T12:45:57.778Z,37.77
2018-11-04T12:48:26.991Z,41.20
2018-11-04T12:50:56.244Z,40.53
2018-11-04T12:53:25.578Z,37.87
2018-11-04T12:55:54.928Z,39.03
2018-11-04T12:58:24.710Z,40.30
2018-11-04T13:00:54.825Z,41.70
2018-11-04T13:03:25.636Z,39.40
2018-11-04T13:05:56.237Z,39.60
2018-11-04T13:08:26.890Z,38.80
2018-11-04T13:10:56.593Z,39.17
2018-11-04T13:13:26.344Z,43.93
2018-11-04T13:15:55.597Z,40.50
2018-11-04T13:18:26.126Z,39.37
2018-11-04T13:20:55.928Z,35.77
2018-11-04T13:23:25.695Z,42.50
2018-11-04T13:25:56.012Z,38.57
2018-11-04T13:30:52.589Z,38.37
2018-11-04T13:33:21.764Z,39.07
2018-11-04T13:35:51.065Z,39.40
2018-11-04T13:38:21.005Z,40.57
2018-11-04T13:40:50.721Z,37.33
2018-11-04T13:43:19.945Z,40.17
2018-11-04T13:45:49.217Z,39.13
2018-11-04T13:48:19.298Z,35.87
2018-11-04T13:50:48.909Z,31.83
2018-11-04T13:53:18.276Z,34.77
2018-11-04T13:55:47.465Z,33.03
2018-11-04T13:58:16.732Z,31.80
2018-11-04T14:00:46.020Z,32.60
2018-11-04T14:03:15.282Z,31.93
2018-11-04T14:05:44.593Z,30.80
2018-11-04T14:08:13.798Z,28.90
2018-11-04T14:10:42.970Z,27.60
2018-11-04T14:13:12.731Z,29.17
2018-11-04T14:15:42.014Z,28.20
2018-11-04T14:18:11.296Z,29.27
2018-11-04T14:20:40.455Z,27.80
2018-11-04T14:23:09.723Z,28.20
2018-11-04T14:25:39.068Z,31.27
2018-11-04T14:28:08.492Z,27.63
2018-11-04T14:30:38.397Z,25.50
2018-11-04T14:33:08.119Z,24.20
2018-11-04T14:35:37.253Z,27.30
2018-11-04T14:38:08.371Z,22.90
2018-11-04T14:40:37.613Z,26.20
2018-11-04T14:43:07.687Z,23.43
2018-11-04T14:45:36.938Z,23.80
2018-11-04T14:48:06.550Z,23.13
2018-11-04T14:50:36.933Z,24.10
2018-11-04T14:53:06.455Z,22.93
2018-11-04T14:55:35.555Z,23.77
2018-11-04T14:58:04.851Z,24.10
2018-11-04T15:00:36.701Z,20.70
2018-11-04T15:03:07.230Z,23.07
2018-11-04T15:05:36.705Z,22.07
2018-11-04T15:08:05.994Z,22.87
2018-11-04T15:10:35.112Z,22.37
2018-11-04T15:13:05.350Z,26.50
2018-11-04T15:15:36.353Z,21.17
2018-11-04T15:18:05.678Z,20.80
2018-11-04T15:20:34.856Z,19.57
2018-11-04T15:23:04.148Z,20.47
2018-11-04T15:25:33.483Z,19.90
2018-11-04T15:28:02.732Z,19.37
2018-11-04T15:30:31.866Z,17.17
2018-11-04T15:33:01.089Z,17.67
2018-11-04T15:35:30.468Z,16.40
2018-11-04T15:38:00.263Z,16.23
2018-11-04T15:40:30.065Z,15.03
2018-11-04T15:42:59.225Z,14.40
2018-11-04T15:45:28.509Z,14.13
2018-11-04T15:47:57.751Z,13.23
2018-11-04T15:50:27.030Z,13.13
2018-11-04T15:52:56.180Z,14.30
2018-11-04T15:55:25.357Z,14.97
2018-11-04T15:57:54.621Z,15.97
2018-11-04T16:00:23.852Z,14.10
2018-11-04T16:02:53.067Z,14.73
2018-11-04T16:05:22.309Z,14.93
2018-11-04T16:07:51.517Z,15.53
2018-11-04T16:10:21.389Z,14.90
2018-11-04T16:12:50.606Z,15.53
2018-11-04T16:15:20.032Z,15.27
2018-11-04T16:17:49.852Z,15.00
2018-11-04T16:20:19.076Z,14.40
2018-11-04T16:22:48.972Z,15.13
2018-11-04T16:25:18.333Z,14.17
2018-11-04T16:27:47.536Z,15.00
2018-11-04T16:30:16.658Z,15.60
2018-11-04T16:32:45.825Z,15.33
2018-11-04T16:35:15.453Z,15.00
2018-11-04T16:37:45.391Z,15.97
2018-11-04T16:40:14.916Z,15.30
2018-11-04T16:42:44.346Z,16.17
2018-11-04T16:45:15.029Z,15.00
2018-11-04T16:47:44.491Z,14.80
2018-11-04T16:50:14.671Z,16.03
2018-11-04T16:52:44.529Z,16.60
2018-11-04T16:55:13.955Z,15.83
2018-11-04T16:57:43.575Z,16.63
2018-11-04T17:00:12.916Z,15.20
2018-11-04T17:02:42.112Z,14.53
2018-11-04T17:05:12.374Z,13.70
2018-11-04T17:07:43.021Z,15.63
2018-11-04T17:10:12.436Z,15.67
2018-11-04T17:12:41.543Z,15.20
2018-11-04T17:15:12.648Z,16.37
2018-11-04T17:17:42.117Z,14.20
2018-11-04T17:20:15.329Z,14.73
2018-11-04T17:22:45.200Z,15.77
2018-11-04T17:25:14.401Z,16.90
2018-11-04T17:27:43.897Z,15.07
2018-11-04T17:30:15.756Z,17.20
2018-11-04T17:32:45.309Z,17.50
2018-11-04T17:35:15.286Z,15.10
2018-11-04T17:37:45.113Z,18.00
2018-11-04T17:40:15.244Z,15.73
2018-11-04T17:42:44.544Z,17.60
2018-11-04T17:45:15.061Z,17.23
2018-11-04T17:47:45.372Z,14.80
2018-11-04T17:50:16.181Z,15.47
2018-11-04T17:52:45.847Z,14.40
2018-11-04T17:55:15.667Z,14.53
2018-11-04T17:57:45.026Z,16.00
2018-11-04T18:00:15.407Z,15.40
2018-11-04T18:02:44.822Z,15.10
2018-11-04T18:05:14.620Z,14.97
2018-11-04T18:07:44.271Z,15.93
2018-11-04T18:10:14.180Z,15.67
2018-11-04T18:12:43.444Z,28.70
2018-11-04T18:15:13.474Z,61.23
2018-11-04T18:17:42.683Z,16.97
2018-11-04T18:20:12.365Z,14.40
2018-11-04T18:22:41.968Z,16.73
2018-11-04T18:25:12.226Z,15.10
2018-11-04T18:27:42.117Z,15.60
2018-11-04T18:30:13.666Z,15.13
2018-11-04T18:32:43.826Z,16.00
2018-11-04T18:35:13.028Z,15.90
2018-11-04T18:37:42.728Z,15.20
2018-11-04T18:40:14.666Z,15.27
2018-11-04T18:42:44.412Z,14.70
2018-11-04T18:45:15.067Z,17.30
2018-11-04T18:47:44.493Z,17.37
2018-11-04T18:50:14.812Z,16.87
2018-11-04T18:52:45.682Z,16.17
2018-11-04T18:55:14.975Z,17.53
2018-11-04T18:57:44.769Z,16.67
2018-11-04T19:00:15.364Z,16.60
2018-11-04T19:02:45.748Z,18.37
2018-11-04T19:05:15.831Z,15.50
2018-11-04T19:07:44.989Z,19.30
2018-11-04T19:10:15.607Z,21.30
2018-11-04T19:12:44.944Z,20.23
2018-11-04T19:15:14.483Z,17.60
2018-11-04T19:17:43.664Z,17.60
2018-11-04T19:20:13.996Z,18.10
2018-11-04T19:22:43.191Z,17.97
2018-11-04T19:25:13.409Z,22.67
2018-11-04T19:27:42.705Z,22.10
2018-11-04T19:30:14.297Z,18.30
2018-11-04T19:32:43.996Z,19.57
2018-11-04T19:35:14.083Z,19.43
2018-11-04T19:37:43.322Z,19.30
2018-11-04T19:40:14.044Z,18.53
2018-11-04T19:42:44.097Z,19.23
2018-11-04T19:45:13.870Z,20.00
2018-11-04T19:47:43.129Z,21.07
2018-11-04T19:50:13.257Z,20.60
2018-11-04T19:52:42.749Z,19.77
2018-11-04T19:55:13.005Z,20.00
2018-11-04T19:57:42.262Z,19.63
2018-11-04T20:00:12.682Z,19.63
2018-11-04T20:02:42.795Z,21.60
2018-11-04T20:05:12.764Z,21.90
2018-11-04T20:07:42.357Z,29.20
2018-11-04T20:10:14.003Z,26.00
2018-11-04T20:12:48.664Z,22.30
2018-11-04T20:15:17.888Z,24.13
2018-11-04T20:17:47.854Z,24.57
2018-11-04T20:20:18.774Z,22.40
2018-11-04T20:22:48.089Z,22.93
2018-11-04T20:25:22.800Z,21.47
2018-11-04T20:27:51.882Z,21.20
2018-11-04T20:30:21.749Z,20.77
2018-11-04T20:32:56.105Z,20.70
2018-11-04T20:35:25.321Z,20.97
2018-11-04T20:37:54.566Z,20.53
2018-11-04T20:40:29.015Z,21.07
2018-11-04T20:42:58.698Z,21.57
2018-11-04T20:45:28.069Z,21.00
2018-11-04T20:48:03.372Z,19.70
2018-11-04T20:50:37.956Z,20.97
2018-11-04T20:53:07.268Z,21.13
2018-11-04T20:55:41.911Z,21.37
2018-11-04T20:58:12.880Z,18.73
2018-11-04T21:00:42.293Z,19.47
2018-11-04T21:03:13.543Z,20.43
2018-11-04T21:05:43.360Z,20.80
2018-11-04T21:08:12.736Z,20.93
2018-11-04T21:10:41.968Z,22.40
2018-11-04T21:13:12.162Z,21.87
2018-11-04T21:15:42.511Z,20.67
2018-11-04T21:18:11.567Z,24.90
2018-11-04T21:20:41.196Z,21.10
2018-11-04T21:23:11.766Z,19.40
2018-11-04T21:25:41.180Z,21.40
2018-11-04T21:28:14.099Z,21.40
2018-11-04T21:30:43.231Z,20.17
2018-11-04T21:33:15.468Z,20.90
2018-11-04T21:35:44.955Z,20.93
2018-11-04T21:38:18.114Z,21.10
2018-11-04T21:40:47.235Z,21.20
2018-11-04T21:43:18.179Z,20.20
2018-11-04T21:45:47.274Z,20.03
2018-11-04T21:48:16.974Z,20.30
2018-11-04T21:50:46.224Z,20.17
2018-11-04T21:53:15.409Z,19.80
2018-11-04T21:55:45.028Z,19.57
2018-11-04T21:58:15.163Z,20.57
2018-11-04T22:00:44.403Z,19.53
2018-11-04T22:03:13.816Z,18.60
2018-11-04T22:05:43.420Z,19.40
2018-11-04T22:08:12.742Z,19.30
2018-11-04T22:10:41.880Z,20.10
2018-11-04T22:13:11.097Z,18.80
2018-11-04T22:15:40.352Z,21.17
2018-11-04T22:18:09.645Z,20.50
2018-11-04T22:20:38.859Z,18.90
2018-11-04T22:23:07.955Z,20.93
2018-11-04T22:25:37.242Z,22.83
2018-11-04T22:28:06.328Z,21.10
2018-11-04T22:30:36.104Z,22.80
2018-11-04T22:33:05.274Z,22.00
2018-11-04T22:35:34.499Z,20.47
2018-11-04T22:38:04.250Z,21.50
2018-11-04T22:40:33.427Z,20.37
2018-11-04T22:43:02.621Z,21.50
2018-11-04T22:45:31.804Z,20.30
2018-11-04T22:48:00.896Z,20.70
2018-11-04T22:50:29.983Z,19.53
2018-11-04T22:52:59.280Z,20.40
2018-11-04T22:55:28.384Z,19.10
2018-11-04T22:58:02.691Z,22.47
2018-11-04T23:00:38.839Z,22.77
2018-11-04T23:03:08.016Z,22.40
2018-11-04T23:05:37.987Z,22.27
2018-11-04T23:08:07.778Z,21.90
2018-11-04T23:10:37.071Z,22.57
2018-11-04T23:13:06.801Z,21.27
2018-11-04T23:15:35.948Z,21.50
2018-11-04T23:18:05.396Z,21.73
2018-11-04T23:20:35.190Z,21.53
2018-11-04T23:23:04.441Z,21.50
2018-11-04T23:25:33.536Z,21.10
2018-11-04T23:28:02.814Z,22.83
2018-11-04T23:30:32.003Z,20.43
2018-11-04T23:33:01.283Z,21.53
2018-11-04T23:35:30.515Z,21.60
2018-11-04T23:37:59.646Z,20.93
2018-11-04T23:40:28.768Z,21.77
2018-11-04T23:42:57.867Z,20.47
2018-11-04T23:45:27.084Z,20.07
2018-11-04T23:47:56.913Z,20.00
2018-11-04T23:50:26.400Z,21.20
2018-11-04T23:52:55.634Z,20.60
2018-11-04T23:55:25.504Z,21.07
2018-11-04T23:57:55.286Z,21.63
